createdAt,value
2018-12-02T00:00:36.857Z,0.00
2018-12-02T00:01:36.853Z,0.00
2018-12-02T00:02:36.843Z,0.00
2018-12-02T00:03:36.837Z,0.00
2018-12-02T00:04:36.828Z,0.00
2018-12-02T00:05:36.814Z,0.00
2018-12-02T00:06:36.810Z,0.00
2018-12-02T00:07:36.797Z,0.00
2018-12-02T00:08:36.788Z,0.00
2018-12-02T00:09:36.785Z,0.00
2018-12-02T00:10:36.778Z,0.00
2018-12-02T00:11:36.770Z,0.00
2018-12-02T00:12:36.759Z,0.00
2018-12-02T00:13:36.747Z,0.00
2018-12-02T00:14:36.743Z,0.00
2018-12-02T00:15:36.735Z,0.00
2018-12-02T00:16:36.726Z,0.00
2018-12-02T00:17:36.713Z,0.00
2018-12-02T00:18:36.706Z,0.00
2018-12-02T00:19:36.697Z,0.00
2018-12-02T00:20:36.687Z,0.00
2018-12-02T00:21:36.684Z,0.00
2018-12-02T00:22:36.678Z,0.00
2018-12-02T00:23:36.668Z,0.00
2018-12-02T00:24:36.660Z,0.00
2018-12-02T00:25:36.646Z,0.00
2018-12-02T00:26:36.638Z,0.00
2018-12-02T00:27:36.629Z,0.00
2018-12-02T00:28:36.620Z,0.00
2018-12-02T00:29:36.617Z,0.00
2018-12-02T00:30:36.610Z,0.00
2018-12-02T00:31:36.595Z,0.00
2018-12-02T00:32:36.588Z,0.00
2018-12-02T00:33:36.583Z,0.00
2018-12-02T00:34:36.580Z,0.00
2018-12-02T00:35:36.567Z,0.00
2018-12-02T00:36:36.559Z,0.00
2018-12-02T00:37:36.547Z,0.00
2018-12-02T00:38:36.538Z,0.00
2018-12-02T00:39:36.529Z,0.00
2018-12-02T00:40:36.527Z,0.00
2018-12-02T00:41:36.518Z,0.00
2018-12-02T00:42:36.514Z,0.00
2018-12-02T00:43:36.503Z,0.00
2018-12-02T00:44:36.494Z,0.00
2018-12-02T00:45:36.479Z,0.00
2018-12-02T00:46:36.473Z,0.00
2018-12-02T00:47:36.466Z,0.00
2018-12-02T00:48:36.460Z,0.00
2018-12-02T00:49:36.448Z,0.00
2018-12-02T00:50:36.447Z,0.00
2018-12-02T00:51:36.430Z,0.00
2018-12-02T00:52:36.420Z,0.00
2018-12-02T00:53:36.418Z,0.00
2018-12-02T00:54:36.408Z,0.00
2018-12-02T00:55:36.400Z,0.00
2018-12-02T00:56:36.391Z,0.00
2018-12-02T00:57:36.378Z,0.00
2018-12-02T00:58:36.370Z,0.00
2018-12-02T00:59:36.361Z,0.00
2018-12-02T01:00:36.353Z,0.00
2018-12-02T01:01:36.351Z,0.00
2018-12-02T01:02:36.342Z,0.00
2018-12-02T01:03:36.329Z,0.00
2018-12-02T01:04:36.319Z,0.00
2018-12-02T01:05:36.319Z,0.00
2018-12-02T01:06:36.309Z,0.00
2018-12-02T01:07:36.298Z,0.00
2018-12-02T01:08:36.290Z,0.00
2018-12-02T01:09:36.277Z,0.00
2018-12-02T01:10:36.271Z,0.00
2018-12-02T01:11:36.260Z,0.00
2018-12-02T01:12:36.252Z,0.00
2018-12-02T01:13:36.248Z,0.00
2018-12-02T01:14:36.242Z,0.00
2018-12-02T01:15:36.239Z,0.00
2018-12-02T01:16:36.225Z,0.00
2018-12-02T01:17:36.212Z,0.00
2018-12-02T01:18:36.203Z,0.00
2018-12-02T01:19:36.199Z,0.00
2018-12-02T01:20:36.191Z,0.00
2018-12-02T01:21:36.177Z,0.00
2018-12-02T01:22:36.170Z,0.00
2018-12-02T01:23:36.160Z,0.00
2018-12-02T01:24:36.201Z,0.00
2018-12-02T01:25:36.149Z,0.00
2018-12-02T01:26:36.141Z,0.00
2018-12-02T01:27:36.132Z,0.00
2018-12-02T01:28:36.122Z,0.00
2018-12-02T01:29:36.110Z,0.00
2018-12-02T01:30:36.102Z,0.00
2018-12-02T01:31:36.093Z,0.00
2018-12-02T01:32:36.085Z,0.00
2018-12-02T01:33:36.083Z,0.00
2018-12-02T01:34:36.074Z,0.00
2018-12-02T01:35:36.060Z,0.00
2018-12-02T01:36:36.052Z,0.00
2018-12-02T01:37:36.049Z,0.00
2018-12-02T01:38:36.041Z,0.00
2018-12-02T01:39:36.030Z,0.00
2018-12-02T01:40:36.023Z,0.00
2018-12-02T01:41:36.011Z,0.00
2018-12-02T01:42:36.003Z,0.00
2018-12-02T01:43:35.993Z,0.00
2018-12-02T01:44:35.985Z,0.00
2018-12-02T01:45:35.981Z,0.00
2018-12-02T01:46:35.974Z,0.00
2018-12-02T01:47:35.963Z,0.00
2018-12-02T01:48:35.956Z,0.00
2018-12-02T01:49:35.945Z,0.00
2018-12-02T01:50:35.935Z,0.00
2018-12-02T01:51:35.930Z,0.00
2018-12-02T01:52:35.923Z,0.00
2018-12-02T01:53:35.911Z,0.00
2018-12-02T01:54:35.902Z,0.00
2018-12-02T01:55:35.894Z,0.00
2018-12-02T01:56:35.886Z,0.00
2018-12-02T01:57:35.882Z,0.00
2018-12-02T01:58:35.875Z,0.00
2018-12-02T01:59:35.864Z,0.00
2018-12-02T02:00:35.860Z,0.00
2018-12-02T02:01:35.844Z,0.00
2018-12-02T02:02:35.836Z,0.00
2018-12-02T02:03:35.826Z,0.00
2018-12-02T02:04:35.821Z,0.00
2018-12-02T02:05:35.815Z,0.00
2018-12-02T02:06:35.808Z,0.00
2018-12-02T02:07:35.794Z,0.00
2018-12-02T02:08:35.800Z,0.00
2018-12-02T02:09:35.782Z,0.00
2018-12-02T02:10:35.774Z,0.00
2018-12-02T02:11:35.765Z,0.00
2018-12-02T02:12:35.760Z,0.00
2018-12-02T02:13:35.744Z,0.00
2018-12-02T02:14:35.735Z,0.00
2018-12-02T02:15:35.726Z,0.00
2018-12-02T02:16:35.718Z,0.00
2018-12-02T02:17:35.715Z,0.00
2018-12-02T02:18:35.707Z,0.00
2018-12-02T02:19:35.697Z,0.00
2018-12-02T02:20:35.693Z,0.00
2018-12-02T02:21:35.678Z,0.00
2018-12-02T02:22:35.667Z,0.00
2018-12-02T02:23:35.663Z,0.00
2018-12-02T02:24:35.654Z,0.00
2018-12-02T02:25:35.687Z,0.00
2018-12-02T02:26:35.633Z,0.00
2018-12-02T02:27:35.623Z,0.00
2018-12-02T02:28:35.638Z,0.00
2018-12-02T02:29:35.611Z,0.00
2018-12-02T02:30:35.603Z,0.00
2018-12-02T02:31:35.594Z,0.00
2018-12-02T02:32:35.586Z,0.00
2018-12-02T02:33:35.571Z,0.00
2018-12-02T02:34:35.563Z,0.00
2018-12-02T02:35:35.553Z,0.00
2018-12-02T02:36:35.545Z,0.00
2018-12-02T02:37:35.539Z,0.00
2018-12-02T02:38:35.530Z,0.00
2018-12-02T02:39:35.516Z,0.00
2018-12-02T02:40:35.513Z,0.00
2018-12-02T02:41:35.503Z,0.00
2018-12-02T02:42:35.503Z,0.00
2018-12-02T02:43:35.488Z,0.00
2018-12-02T02:44:35.477Z,0.00
2018-12-02T02:45:35.465Z,0.00
2018-12-02T02:46:35.456Z,0.00
2018-12-02T02:47:35.444Z,0.00
2018-12-02T02:48:35.436Z,0.00
2018-12-02T02:49:35.432Z,0.00
2018-12-02T02:50:35.422Z,0.00
2018-12-02T02:51:35.420Z,0.00
2018-12-02T02:52:35.405Z,0.00
2018-12-02T02:53:35.391Z,0.00
2018-12-02T02:54:35.381Z,0.00
2018-12-02T02:55:35.379Z,0.00
2018-12-02T02:56:35.367Z,0.00
2018-12-02T02:57:35.355Z,0.00
2018-12-02T02:58:35.350Z,0.00
2018-12-02T02:59:35.335Z,0.00
2018-12-02T03:00:35.325Z,0.00
2018-12-02T03:01:35.321Z,0.00
2018-12-02T03:02:35.313Z,0.00
2018-12-02T03:03:35.303Z,0.00
2018-12-02T03:04:35.294Z,0.00
2018-12-02T03:05:35.283Z,0.00
2018-12-02T03:06:35.271Z,0.00
2018-12-02T03:07:35.261Z,0.00
2018-12-02T03:08:35.252Z,0.00
2018-12-02T03:09:35.248Z,0.00
2018-12-02T03:10:35.238Z,0.00
2018-12-02T03:11:35.224Z,0.00
2018-12-02T03:12:35.215Z,0.00
2018-12-02T03:13:35.212Z,0.00
2018-12-02T03:14:35.202Z,0.00
2018-12-02T03:15:35.192Z,0.00
2018-12-02T03:16:35.181Z,0.00
2018-12-02T03:17:35.168Z,0.00
2018-12-02T03:18:35.161Z,0.00
2018-12-02T03:19:35.151Z,0.00
2018-12-02T03:20:35.140Z,0.00
2018-12-02T03:21:35.135Z,0.00
2018-12-02T03:22:35.127Z,0.00
2018-12-02T03:23:35.117Z,0.00
2018-12-02T03:24:35.107Z,0.00
2018-12-02T03:25:35.095Z,0.00
2018-12-02T03:26:35.085Z,0.00
2018-12-02T03:27:35.078Z,0.00
2018-12-02T03:28:35.069Z,0.00
2018-12-02T03:29:35.057Z,0.00
2018-12-02T03:30:35.049Z,0.00
2018-12-02T03:31:35.038Z,0.00
2018-12-02T03:32:35.027Z,0.00
2018-12-02T03:33:35.022Z,0.00
2018-12-02T03:34:35.012Z,0.00
2018-12-02T03:35:35.002Z,0.00
2018-12-02T03:36:34.997Z,0.00
2018-12-02T03:37:34.979Z,0.00
2018-12-02T03:38:34.972Z,0.00
2018-12-02T03:39:34.959Z,0.00
2018-12-02T03:40:34.951Z,0.00
2018-12-02T03:41:34.946Z,0.00
2018-12-02T03:42:34.937Z,0.00
2018-12-02T03:43:34.922Z,0.00
2018-12-02T03:44:34.913Z,0.00
2018-12-02T03:45:34.910Z,0.00
2018-12-02T03:46:34.902Z,0.00
2018-12-02T03:47:34.890Z,0.00
2018-12-02T03:48:34.910Z,0.00
2018-12-02T03:49:34.866Z,0.00
2018-12-02T03:50:34.855Z,0.00
2018-12-02T03:51:34.845Z,0.00
2018-12-02T03:52:34.836Z,0.00
2018-12-02T03:53:34.832Z,0.00
2018-12-02T03:54:34.827Z,0.00
2018-12-02T03:55:34.811Z,0.00
2018-12-02T03:56:34.802Z,0.00
2018-12-02T03:57:34.788Z,0.00
2018-12-02T03:58:34.780Z,0.00
2018-12-02T03:59:34.773Z,0.00
2018-12-02T04:00:34.774Z,0.00
2018-12-02T04:01:34.751Z,0.00
2018-12-02T04:02:34.746Z,0.00
2018-12-02T04:03:34.731Z,0.00
2018-12-02T04:04:34.722Z,0.00
2018-12-02T04:05:34.719Z,0.00
2018-12-02T04:06:34.708Z,0.00
2018-12-02T04:07:34.697Z,0.00
2018-12-02T04:08:34.689Z,0.00
2018-12-02T04:09:34.674Z,0.00
2018-12-02T04:10:34.665Z,0.00
2018-12-02T04:11:34.661Z,0.00
2018-12-02T04:12:34.645Z,0.00
2018-12-02T04:13:34.641Z,0.00
2018-12-02T04:14:34.632Z,0.00
2018-12-02T04:15:34.616Z,0.00
2018-12-02T04:16:34.607Z,0.00
2018-12-02T04:17:34.601Z,0.00
2018-12-02T04:18:34.593Z,0.00
2018-12-02T04:19:34.583Z,0.00
2018-12-02T04:20:34.576Z,0.00
2018-12-02T04:21:34.564Z,0.00
2018-12-02T04:22:34.550Z,0.00
2018-12-02T04:23:34.540Z,0.00
2018-12-02T04:24:34.533Z,0.00
2018-12-02T04:25:34.527Z,0.00
2018-12-02T04:26:34.516Z,0.00
2018-12-02T04:27:34.507Z,0.00
2018-12-02T04:28:34.497Z,0.00
2018-12-02T04:29:34.483Z,0.00
2018-12-02T04:30:34.473Z,0.00
2018-12-02T04:31:34.467Z,0.00
2018-12-02T04:32:34.467Z,0.00
2018-12-02T04:33:34.444Z,0.00
2018-12-02T04:34:34.438Z,0.00
2018-12-02T04:35:34.426Z,0.00
2018-12-02T04:36:34.415Z,0.00
2018-12-02T04:37:34.410Z,0.00
2018-12-02T04:38:34.401Z,0.00
2018-12-02T04:39:34.394Z,0.00
2018-12-02T04:40:34.383Z,0.00
2018-12-02T04:41:34.371Z,0.00
2018-12-02T04:42:34.358Z,0.00
2018-12-02T04:43:34.351Z,0.00
2018-12-02T04:44:34.339Z,0.00
2018-12-02T04:45:34.334Z,0.00
2018-12-02T04:46:34.324Z,0.00
2018-12-02T04:47:34.312Z,0.00
2018-12-02T04:48:34.301Z,0.00
2018-12-02T04:49:34.295Z,0.00
2018-12-02T04:50:34.287Z,0.00
2018-12-02T04:51:34.277Z,0.00
2018-12-02T04:52:34.271Z,0.00
2018-12-02T04:53:34.256Z,0.00
2018-12-02T04:54:34.254Z,0.00
2018-12-02T04:55:34.234Z,0.00
2018-12-02T04:56:34.224Z,0.00
2018-12-02T04:57:34.219Z,0.00
2018-12-02T04:58:34.212Z,0.00
2018-12-02T04:59:34.200Z,0.00
2018-12-02T05:00:34.196Z,0.00
2018-12-02T05:01:34.177Z,0.00
2018-12-02T05:02:34.168Z,0.00
2018-12-02T05:03:34.164Z,0.00
2018-12-02T05:04:34.153Z,0.00
2018-12-02T05:05:34.140Z,0.00
2018-12-02T05:06:34.131Z,0.00
2018-12-02T05:07:34.120Z,0.00
2018-12-02T05:08:34.110Z,0.00
2018-12-02T05:09:34.105Z,0.00
2018-12-02T05:10:34.096Z,0.00
2018-12-02T05:11:34.085Z,0.00
2018-12-02T05:12:34.079Z,0.00
2018-12-02T05:13:34.064Z,0.00
2018-12-02T05:14:34.054Z,0.00
2018-12-02T05:15:34.047Z,0.00
2018-12-02T05:16:34.034Z,0.00
2018-12-02T05:17:34.030Z,0.00
2018-12-02T05:18:34.021Z,0.00
2018-12-02T05:19:34.006Z,0.00
2018-12-02T05:20:33.997Z,0.00
2018-12-02T05:21:33.992Z,0.00
2018-12-02T05:22:33.982Z,0.00
2018-12-02T05:23:34.020Z,0.00
2018-12-02T05:24:33.961Z,0.00
2018-12-02T05:25:33.950Z,0.00
2018-12-02T05:26:33.946Z,0.00
2018-12-02T05:27:33.932Z,0.00
2018-12-02T05:28:33.919Z,0.00
2018-12-02T05:29:33.915Z,0.00
2018-12-02T05:30:33.912Z,0.00
2018-12-02T05:31:33.895Z,0.00
2018-12-02T05:32:33.886Z,0.00
2018-12-02T05:33:33.874Z,0.00
2018-12-02T05:34:33.865Z,0.00
2018-12-02T05:35:33.857Z,0.00
2018-12-02T05:36:33.847Z,0.00
2018-12-02T05:37:33.834Z,0.00
2018-12-02T05:38:33.825Z,0.00
2018-12-02T05:39:33.814Z,0.00
2018-12-02T05:40:33.805Z,0.00
2018-12-02T05:41:33.800Z,0.00
2018-12-02T05:42:33.791Z,0.00
2018-12-02T05:43:33.780Z,0.00
2018-12-02T05:44:33.774Z,0.00
2018-12-02T05:45:33.757Z,0.00
2018-12-02T05:46:33.748Z,0.00
2018-12-02T05:47:33.738Z,0.00
2018-12-02T05:48:33.729Z,0.00
2018-12-02T05:49:33.726Z,0.00
2018-12-02T05:50:33.714Z,0.00
2018-12-02T05:51:33.699Z,0.00
2018-12-02T05:52:33.690Z,0.00
2018-12-02T05:53:33.685Z,0.00
2018-12-02T05:54:33.676Z,0.00
2018-12-02T05:55:33.666Z,0.00
2018-12-02T05:56:33.657Z,0.00
2018-12-02T05:57:33.643Z,0.00
2018-12-02T05:58:33.633Z,0.00
2018-12-02T05:59:33.624Z,0.00
2018-12-02T06:00:33.614Z,0.00
2018-12-02T06:01:33.611Z,0.00
2018-12-02T06:02:33.601Z,0.00
2018-12-02T06:03:33.590Z,0.00
2018-12-02T06:04:33.582Z,0.00
2018-12-02T06:05:33.567Z,0.00
2018-12-02T06:06:33.558Z,0.00
2018-12-02T06:07:33.552Z,0.00
2018-12-02T06:08:33.542Z,0.00
2018-12-02T06:09:33.529Z,0.00
2018-12-02T06:10:33.520Z,0.00
2018-12-02T06:11:33.512Z,0.00
2018-12-02T06:12:33.501Z,0.00
2018-12-02T06:13:33.497Z,0.00
2018-12-02T06:14:33.487Z,0.00
2018-12-02T06:15:33.476Z,0.00
2018-12-02T06:16:33.468Z,0.00
2018-12-02T06:17:33.453Z,0.00
2018-12-02T06:18:33.445Z,0.00
2018-12-02T06:19:33.433Z,0.00
2018-12-02T06:20:33.425Z,0.00
2018-12-02T06:21:33.420Z,0.00
2018-12-02T06:22:33.411Z,0.00
2018-12-02T06:23:33.396Z,0.00
2018-12-02T06:24:33.434Z,0.00
2018-12-02T06:25:33.383Z,0.00
2018-12-02T06:26:33.373Z,0.00
2018-12-02T06:27:33.364Z,0.00
2018-12-02T06:28:33.355Z,0.00
2018-12-02T06:29:33.342Z,0.00
2018-12-02T06:30:33.331Z,0.00
2018-12-02T06:31:33.321Z,0.00
2018-12-02T06:32:33.312Z,0.00
2018-12-02T06:33:33.312Z,0.00
2018-12-02T06:34:33.298Z,0.00
2018-12-02T06:35:33.287Z,0.00
2018-12-02T06:36:33.278Z,0.00
2018-12-02T06:37:33.265Z,0.00
2018-12-02T06:38:33.256Z,0.00
2018-12-02T06:39:33.250Z,0.00
2018-12-02T06:40:33.240Z,0.00
2018-12-02T06:41:33.227Z,0.00
2018-12-02T06:42:33.218Z,0.00
2018-12-02T06:43:33.208Z,0.00
2018-12-02T06:44:33.199Z,0.00
2018-12-02T06:45:34.438Z,0.00
2018-12-02T06:46:33.185Z,0.00
2018-12-02T06:47:33.175Z,0.00
2018-12-02T06:48:33.166Z,0.00
2018-12-02T06:49:33.152Z,0.00
2018-12-02T06:50:33.144Z,4.00
2018-12-02T06:51:33.132Z,4.00
2018-12-02T06:52:33.123Z,0.00
2018-12-02T06:53:33.118Z,4.00
2018-12-02T06:54:33.110Z,4.00
2018-12-02T06:55:33.094Z,4.00
2018-12-02T06:56:33.086Z,4.00
2018-12-02T06:57:33.082Z,4.00
2018-12-02T06:58:33.070Z,8.00
2018-12-02T06:59:33.061Z,4.00
2018-12-02T07:00:33.053Z,8.00
2018-12-02T07:01:33.038Z,12.00
2018-12-02T07:02:33.030Z,12.00
2018-12-02T07:03:33.018Z,16.00
2018-12-02T07:04:33.009Z,16.00
2018-12-02T07:05:33.005Z,20.00
2018-12-02T07:06:32.997Z,24.00
2018-12-02T07:07:32.986Z,20.00
2018-12-02T07:08:32.977Z,28.00
2018-12-02T07:09:32.962Z,24.00
2018-12-02T07:10:32.953Z,24.00
2018-12-02T07:11:32.949Z,28.00
2018-12-02T07:12:32.939Z,28.00
2018-12-02T07:13:32.924Z,24.00
2018-12-02T07:14:32.918Z,24.00
2018-12-02T07:15:32.905Z,24.00
2018-12-02T07:16:32.897Z,32.00
2018-12-02T07:17:32.891Z,32.00
2018-12-02T07:18:32.882Z,24.00
2018-12-02T07:19:32.873Z,32.00
2018-12-02T07:20:32.862Z,32.00
2018-12-02T07:21:32.850Z,32.00
2018-12-02T07:22:32.891Z,36.00
2018-12-02T07:23:32.830Z,36.00
2018-12-02T07:24:32.821Z,36.00
2018-12-02T07:25:32.817Z,40.00
2018-12-02T07:26:33.379Z,44.00
2018-12-02T07:27:32.795Z,60.00
2018-12-02T07:28:32.785Z,60.00
2018-12-02T07:29:32.780Z,72.00
2018-12-02T07:30:32.770Z,76.00
2018-12-02T07:31:32.759Z,80.00
2018-12-02T07:32:32.750Z,104.00
2018-12-02T07:33:32.737Z,100.00
2018-12-02T07:34:32.730Z,124.00
2018-12-02T07:35:32.717Z,148.00
2018-12-02T07:36:32.709Z,140.00
2018-12-02T07:37:32.703Z,132.00
2018-12-02T07:38:32.693Z,136.00
2018-12-02T07:39:32.685Z,160.00
2018-12-02T07:40:32.677Z,164.00
2018-12-02T07:41:32.661Z,156.00
2018-12-02T07:42:32.652Z,136.00
2018-12-02T07:43:32.648Z,136.00
2018-12-02T07:44:32.639Z,128.00
2018-12-02T07:45:33.926Z,136.00
2018-12-02T07:46:32.615Z,140.00
2018-12-02T07:47:32.606Z,136.00
2018-12-02T07:48:32.596Z,152.00
2018-12-02T07:49:32.591Z,152.00
2018-12-02T07:50:32.583Z,164.00
2018-12-02T07:51:32.572Z,148.00
2018-12-02T07:52:32.563Z,156.00
2018-12-02T07:53:32.549Z,176.00
2018-12-02T07:54:32.541Z,180.00
2018-12-02T07:55:32.530Z,212.00
2018-12-02T07:56:32.523Z,296.00
2018-12-02T07:57:32.518Z,312.00
2018-12-02T07:58:32.510Z,364.00
2018-12-02T07:59:32.493Z,404.00
2018-12-02T08:00:32.485Z,400.00
2018-12-02T08:01:32.481Z,392.00
2018-12-02T08:02:32.471Z,372.00
2018-12-02T08:03:32.461Z,376.00
2018-12-02T08:04:32.452Z,348.00
2018-12-02T08:05:32.442Z,408.00
2018-12-02T08:06:32.430Z,396.00
2018-12-02T08:07:32.420Z,464.00
2018-12-02T08:08:32.413Z,496.00
2018-12-02T08:09:32.406Z,552.00
2018-12-02T08:10:32.398Z,532.00
2018-12-02T08:11:32.388Z,544.00
2018-12-02T08:12:32.379Z,548.00
2018-12-02T08:13:32.369Z,568.00
2018-12-02T08:14:32.360Z,560.00
2018-12-02T08:15:32.354Z,536.00
2018-12-02T08:16:32.347Z,592.00
2018-12-02T08:17:32.329Z,588.00
2018-12-02T08:18:32.321Z,588.00
2018-12-02T08:19:32.310Z,592.00
2018-12-02T08:20:32.302Z,596.00
2018-12-02T08:21:32.297Z,604.00
2018-12-02T08:22:32.289Z,616.00
2018-12-02T08:23:32.282Z,568.00
2018-12-02T08:24:32.271Z,536.00
2018-12-02T08:25:32.255Z,520.00
2018-12-02T08:26:32.247Z,564.00
2018-12-02T08:27:32.239Z,592.00
2018-12-02T08:28:32.231Z,616.00
2018-12-02T08:29:32.225Z,604.00
2018-12-02T08:30:32.217Z,572.00
2018-12-02T08:31:32.202Z,528.00
2018-12-02T08:32:32.193Z,556.00
2018-12-02T08:33:32.190Z,572.00
2018-12-02T08:34:32.181Z,576.00
2018-12-02T08:35:32.172Z,592.00
2018-12-02T08:36:32.161Z,652.00
2018-12-02T08:37:32.147Z,704.00
2018-12-02T08:38:32.138Z,788.00
2018-12-02T08:39:32.129Z,704.00
2018-12-02T08:40:32.121Z,568.00
2018-12-02T08:41:32.116Z,472.00
2018-12-02T08:42:32.107Z,452.00
2018-12-02T08:43:32.099Z,384.00
2018-12-02T08:44:32.092Z,356.00
2018-12-02T08:45:32.076Z,392.00
2018-12-02T08:46:32.068Z,468.00
2018-12-02T08:47:32.067Z,596.00
2018-12-02T08:48:32.056Z,716.00
2018-12-02T08:49:32.040Z,764.00
2018-12-02T08:50:32.031Z,852.00
2018-12-02T08:51:32.022Z,816.00
2018-12-02T08:52:32.013Z,804.00
2018-12-02T08:53:32.037Z,752.00
2018-12-02T08:54:32.000Z,836.00
2018-12-02T08:55:31.991Z,892.00
2018-12-02T08:56:31.982Z,920.00
2018-12-02T08:57:31.970Z,904.00
2018-12-02T08:58:31.960Z,808.00
2018-12-02T08:59:31.951Z,836.00
2018-12-02T09:00:31.943Z,912.00
2018-12-02T09:01:31.946Z,820.00
2018-12-02T09:02:31.929Z,900.00
2018-12-02T09:03:31.914Z,1008.00
2018-12-02T09:04:31.906Z,1068.00
2018-12-02T09:05:31.903Z,996.00
2018-12-02T09:06:31.894Z,932.00
2018-12-02T09:07:31.883Z,780.00
2018-12-02T09:08:31.876Z,636.00
2018-12-02T09:09:31.863Z,572.00
2018-12-02T09:10:31.853Z,548.00
2018-12-02T09:11:31.844Z,568.00
2018-12-02T09:12:31.836Z,536.00
2018-12-02T09:13:31.832Z,496.00
2018-12-02T09:14:31.824Z,480.00
2018-12-02T09:15:31.813Z,456.00
2018-12-02T09:16:31.805Z,428.00
2018-12-02T09:17:31.792Z,404.00
2018-12-02T09:18:31.783Z,404.00
2018-12-02T09:19:31.782Z,384.00
2018-12-02T09:20:31.769Z,376.00
2018-12-02T09:21:31.757Z,444.00
2018-12-02T09:22:31.750Z,508.00
2018-12-02T09:23:31.739Z,572.00
2018-12-02T09:24:31.734Z,688.00
2018-12-02T09:25:31.726Z,728.00
2018-12-02T09:26:31.719Z,752.00
2018-12-02T09:27:31.710Z,776.00
2018-12-02T09:28:31.700Z,768.00
2018-12-02T09:29:31.686Z,764.00
2018-12-02T09:30:31.679Z,752.00
2018-12-02T09:31:31.668Z,768.00
2018-12-02T09:32:31.660Z,776.00
2018-12-02T09:33:31.656Z,760.00
2018-12-02T09:34:31.646Z,636.00
2018-12-02T09:35:31.633Z,544.00
2018-12-02T09:36:31.624Z,572.00
2018-12-02T09:37:31.620Z,684.00
2018-12-02T09:38:31.614Z,736.00
2018-12-02T09:39:31.603Z,732.00
2018-12-02T09:40:31.592Z,700.00
2018-12-02T09:41:31.581Z,696.00
2018-12-02T09:42:31.573Z,672.00
2018-12-02T09:43:31.562Z,720.00
2018-12-02T09:44:31.554Z,696.00
2018-12-02T09:45:31.550Z,664.00
2018-12-02T09:46:31.542Z,684.00
2018-12-02T09:47:31.531Z,736.00
2018-12-02T09:48:31.526Z,824.00
2018-12-02T09:49:31.511Z,788.00
2018-12-02T09:50:31.501Z,732.00
2018-12-02T09:51:31.497Z,772.00
2018-12-02T09:52:31.489Z,804.00
2018-12-02T09:53:31.476Z,840.00
2018-12-02T09:54:31.467Z,856.00
2018-12-02T09:55:31.457Z,836.00
2018-12-02T09:56:31.450Z,816.00
2018-12-02T09:57:31.449Z,800.00
2018-12-02T09:58:31.437Z,780.00
2018-12-02T09:59:31.430Z,708.00
2018-12-02T10:00:34.109Z,696.00
2018-12-02T10:01:31.407Z,752.00
2018-12-02T10:02:31.399Z,772.00
2018-12-02T10:03:31.391Z,808.00
2018-12-02T10:04:31.381Z,796.00
2018-12-02T10:05:31.377Z,696.00
2018-12-02T10:06:31.368Z,576.00
2018-12-02T10:07:31.356Z,576.00
2018-12-02T10:08:31.346Z,572.00
2018-12-02T10:09:31.346Z,624.00
2018-12-02T10:10:31.334Z,736.00
2018-12-02T10:11:31.326Z,700.00
2018-12-02T10:12:31.317Z,664.00
2018-12-02T10:13:31.305Z,660.00
2018-12-02T10:14:31.295Z,600.00
2018-12-02T10:15:31.346Z,596.00
2018-12-02T10:16:31.277Z,672.00
2018-12-02T10:17:31.273Z,844.00
2018-12-02T10:18:31.266Z,976.00
2018-12-02T10:19:31.256Z,1092.00
2018-12-02T10:20:31.248Z,1184.00
2018-12-02T10:21:31.236Z,1140.00
2018-12-02T10:22:31.228Z,1344.00
2018-12-02T10:23:31.225Z,1204.00
2018-12-02T10:24:31.214Z,1320.00
2018-12-02T10:25:31.202Z,1436.00
2018-12-02T10:26:31.192Z,1540.00
2018-12-02T10:27:31.182Z,1600.00
2018-12-02T10:28:31.174Z,1892.00
2018-12-02T10:29:31.172Z,2056.00
2018-12-02T10:30:31.162Z,2204.00
2018-12-02T10:31:31.154Z,2040.00
2018-12-02T10:32:31.145Z,2104.00
2018-12-02T10:33:31.136Z,2188.00
2018-12-02T10:34:31.125Z,2036.00
2018-12-02T10:35:31.117Z,2092.00
2018-12-02T10:36:31.146Z,1812.00
2018-12-02T10:37:31.106Z,1916.00
2018-12-02T10:38:31.099Z,2360.00
2018-12-02T10:39:31.088Z,2404.00
2018-12-02T10:40:31.074Z,1976.00
2018-12-02T10:41:31.072Z,1500.00
2018-12-02T10:42:31.063Z,1464.00
2018-12-02T10:43:31.053Z,1332.00
2018-12-02T10:44:31.051Z,1464.00
2018-12-02T10:45:31.034Z,1872.00
2018-12-02T10:46:31.037Z,1748.00
2018-12-02T10:47:31.024Z,1756.00
2018-12-02T10:48:31.009Z,1408.00
2018-12-02T10:49:31.006Z,1528.00
2018-12-02T10:50:31.003Z,1516.00
2018-12-02T10:51:30.990Z,1128.00
2018-12-02T10:52:30.982Z,1080.00
2018-12-02T10:53:30.968Z,1168.00
2018-12-02T10:54:30.961Z,1364.00
2018-12-02T10:55:30.959Z,1328.00
2018-12-02T10:56:30.960Z,1364.00
2018-12-02T10:57:30.943Z,1484.00
2018-12-02T10:58:30.929Z,1772.00
2018-12-02T10:59:30.921Z,1596.00
2018-12-02T11:00:30.914Z,1580.00
2018-12-02T11:01:30.913Z,1680.00
2018-12-02T11:02:30.902Z,1468.00
2018-12-02T11:03:30.895Z,1780.00
2018-12-02T11:04:30.889Z,2208.00
2018-12-02T11:05:30.875Z,2660.00
2018-12-02T11:06:30.867Z,2844.00
2018-12-02T11:07:30.860Z,2696.00
2018-12-02T11:08:30.852Z,2816.00
2018-12-02T11:09:30.849Z,2444.00
2018-12-02T11:10:30.842Z,2440.00
2018-12-02T11:11:30.830Z,2376.00
2018-12-02T11:12:30.822Z,2180.00
2018-12-02T11:13:30.820Z,2336.00
2018-12-02T11:14:30.815Z,2360.00
2018-12-02T11:15:30.804Z,2072.00
2018-12-02T11:16:30.800Z,1972.00
2018-12-02T11:17:30.786Z,2236.00
2018-12-02T11:18:30.779Z,2420.00
2018-12-02T11:19:30.770Z,2636.00
2018-12-02T11:20:30.764Z,2060.00
2018-12-02T11:21:30.773Z,2336.00
2018-12-02T11:22:30.754Z,2048.00
2018-12-02T11:23:30.748Z,2412.00
2018-12-02T11:24:30.742Z,2224.00
2018-12-02T11:25:30.728Z,2368.00
2018-12-02T11:26:30.721Z,2784.00
2018-12-02T11:27:30.717Z,3016.00
2018-12-02T11:28:30.712Z,2508.00
2018-12-02T11:29:30.701Z,2164.00
2018-12-02T11:30:30.696Z,2068.00
2018-12-02T11:31:30.686Z,1972.00
2018-12-02T11:32:30.679Z,1980.00
2018-12-02T11:33:30.683Z,1660.00
2018-12-02T11:34:30.671Z,1788.00
2018-12-02T11:35:30.662Z,1832.00
2018-12-02T11:36:30.658Z,1812.00
2018-12-02T11:37:30.646Z,1904.00
2018-12-02T11:38:30.647Z,2956.00
2018-12-02T11:39:30.633Z,2016.00
2018-12-02T11:40:30.625Z,1944.00
2018-12-02T11:41:30.622Z,1716.00
2018-12-02T11:42:30.615Z,1372.00
2018-12-02T11:43:30.603Z,1680.00
2018-12-02T11:44:30.596Z,1516.00
2018-12-02T11:45:30.595Z,1236.00
2018-12-02T11:46:30.588Z,1320.00
2018-12-02T11:47:30.581Z,1228.00
2018-12-02T11:48:30.578Z,1256.00
2018-12-02T11:49:30.565Z,1468.00
2018-12-02T11:50:30.558Z,1536.00
2018-12-02T11:51:30.550Z,1724.00
2018-12-02T11:52:30.546Z,2204.00
2018-12-02T11:53:30.544Z,1760.00
2018-12-02T11:54:30.536Z,1764.00
2018-12-02T11:55:30.527Z,1576.00
2018-12-02T11:56:30.523Z,1440.00
2018-12-02T11:57:30.514Z,2020.00
2018-12-02T11:58:30.508Z,2188.00
2018-12-02T11:59:30.501Z,1680.00
2018-12-02T12:00:30.495Z,1856.00
2018-12-02T12:01:30.487Z,2364.00
2018-12-02T12:02:30.479Z,2784.00
2018-12-02T12:03:30.476Z,2924.00
2018-12-02T12:04:30.465Z,2272.00
2018-12-02T12:05:30.463Z,1968.00
2018-12-02T12:06:30.460Z,2004.00
2018-12-02T12:07:30.449Z,2024.00
2018-12-02T12:08:31.491Z,2212.00
2018-12-02T12:09:30.431Z,2260.00
2018-12-02T12:10:30.426Z,2408.00
2018-12-02T12:11:30.417Z,2240.00
2018-12-02T12:12:30.412Z,2540.00
2018-12-02T12:13:30.409Z,2116.00
2018-12-02T12:14:30.404Z,2320.00
2018-12-02T12:15:30.395Z,2040.00
2018-12-02T12:16:30.388Z,2380.00
2018-12-02T12:17:30.383Z,2296.00
2018-12-02T12:18:30.377Z,2480.00
2018-12-02T12:19:30.372Z,2788.00
2018-12-02T12:20:30.369Z,3248.00
2018-12-02T12:21:30.357Z,3180.00
2018-12-02T12:22:30.347Z,2936.00
2018-12-02T12:23:30.346Z,2656.00
2018-12-02T12:24:30.339Z,2356.00
2018-12-02T12:25:30.330Z,2572.00
2018-12-02T12:26:30.323Z,2280.00
2018-12-02T12:27:30.316Z,1832.00
2018-12-02T12:28:30.309Z,2084.00
2018-12-02T12:29:30.309Z,2344.00
2018-12-02T12:30:30.303Z,2292.00
2018-12-02T12:31:30.290Z,2124.00
2018-12-02T12:32:30.299Z,1724.00
2018-12-02T12:33:30.292Z,1704.00
2018-12-02T12:34:30.287Z,2168.00
2018-12-02T12:35:30.274Z,2744.00
2018-12-02T12:36:30.267Z,2464.00
2018-12-02T12:37:30.254Z,2760.00
2018-12-02T12:38:30.253Z,2844.00
2018-12-02T12:39:30.241Z,2384.00
2018-12-02T12:40:30.243Z,1868.00
2018-12-02T12:41:30.236Z,1752.00
2018-12-02T12:42:30.228Z,1600.00
2018-12-02T12:43:30.221Z,1712.00
2018-12-02T12:44:30.228Z,1664.00
2018-12-02T12:45:30.231Z,2028.00
2018-12-02T12:46:30.200Z,2000.00
2018-12-02T12:47:30.197Z,2452.00
2018-12-02T12:48:30.193Z,3112.00
2018-12-02T12:49:30.182Z,2900.00
2018-12-02T12:50:30.179Z,3264.00